createdAt,value
2019-03-24T00:01:00.125Z,8.78
2019-03-24T00:02:00.612Z,8.84
2019-03-24T00:03:01.113Z,8.78
2019-03-24T00:04:02.469Z,8.81
2019-03-24T00:05:02.970Z,8.78
2019-03-24T00:06:03.739Z,8.78
2019-03-24T00:07:04.235Z,8.75
2019-03-24T00:08:04.438Z,8.77
2019-03-24T00:09:05.542Z,8.75
2019-03-24T00:10:06.505Z,8.78
2019-03-24T00:11:06.987Z,8.71
2019-03-24T00:12:07.472Z,8.75
2019-03-24T00:13:08.512Z,8.79
2019-03-24T00:14:08.995Z,8.64
2019-03-24T00:15:09.196Z,8.57
2019-03-24T00:16:09.966Z,8.61
2019-03-24T00:17:10.732Z,8.52
2019-03-24T00:18:11.772Z,8.42
2019-03-24T00:19:12.534Z,8.39
2019-03-24T00:20:13.305Z,8.28
2019-03-24T00:21:14.078Z,8.27
2019-03-24T00:22:14.840Z,8.21
2019-03-24T00:23:16.184Z,8.2
2019-03-24T00:24:16.393Z,8.24
2019-03-24T00:25:16.893Z,8.18
2019-03-24T00:26:17.655Z,8.2
2019-03-24T00:27:18.698Z,8.31
2019-03-24T00:28:19.474Z,8.13
2019-03-24T00:29:20.235Z,8.18
2019-03-24T00:30:20.898Z,8.13
2019-03-24T00:31:21.219Z,8.11
2019-03-24T00:32:21.985Z,8.02
2019-03-24T00:33:22.190Z,8.09
2019-03-24T00:34:22.671Z,8.03
2019-03-24T00:35:23.448Z,8.05
2019-03-24T00:36:24.209Z,7.85
2019-03-24T00:37:24.694Z,7.88
2019-03-24T00:38:25.176Z,7.88
2019-03-24T00:39:26.042Z,7.88
2019-03-24T00:40:26.823Z,7.91
2019-03-24T00:41:27.574Z,7.91
2019-03-24T00:42:27.820Z,7.88
2019-03-24T00:43:28.304Z,7.84
2019-03-24T00:44:28.788Z,7.77
2019-03-24T00:45:39.601Z,7.81
2019-03-24T00:46:40.292Z,7.8
2019-03-24T00:47:40.784Z,7.8
2019-03-24T00:48:41.548Z,7.9
2019-03-24T00:49:41.761Z,7.83
2019-03-24T00:50:42.243Z,7.91
2019-03-24T00:51:42.742Z,7.87
2019-03-24T00:52:43.231Z,7.9
2019-03-24T00:53:44.007Z,7.98
2019-03-24T00:54:45.045Z,7.85
2019-03-24T00:55:45.258Z,7.91
2019-03-24T00:56:46.063Z,7.91
2019-03-24T00:57:47.110Z,7.81
2019-03-24T00:58:48.705Z,7.9
2019-03-24T00:59:48.954Z,7.88
2019-03-24T01:00:50.006Z,7.9
2019-03-24T01:01:50.636Z,7.84
2019-03-24T01:02:51.117Z,7.87
2019-03-24T01:03:52.156Z,7.91
2019-03-24T01:04:52.664Z,7.9
2019-03-24T01:05:53.713Z,7.83
2019-03-24T01:06:54.369Z,7.91
2019-03-24T01:07:54.852Z,7.87
2019-03-24T01:08:55.101Z,7.85
2019-03-24T01:09:55.865Z,7.87
2019-03-24T01:10:56.506Z,7.84
2019-03-24T01:11:57.552Z,7.85
2019-03-24T01:12:58.076Z,7.9
2019-03-24T01:13:59.399Z,7.9
2019-03-24T01:14:59.611Z,7.87
2019-03-24T01:16:00.654Z,7.91
2019-03-24T01:17:00.873Z,7.84
2019-03-24T01:18:01.366Z,7.87
2019-03-24T01:19:02.232Z,7.77
2019-03-24T01:20:03.281Z,7.83
2019-03-24T01:21:03.778Z,7.75
2019-03-24T01:22:04.273Z,7.78
2019-03-24T01:23:04.325Z,7.81
2019-03-24T01:24:04.813Z,7.77
2019-03-24T01:25:04.905Z,7.78
2019-03-24T01:26:05.401Z,7.67
2019-03-24T01:27:06.358Z,7.69
2019-03-24T01:28:07.119Z,7.66
2019-03-24T01:29:07.327Z,7.74
2019-03-24T01:30:08.091Z,7.64
2019-03-24T01:31:08.850Z,7.72
2019-03-24T01:32:09.059Z,7.67
2019-03-24T01:33:10.107Z,7.67
2019-03-24T01:34:10.594Z,7.74
2019-03-24T01:35:11.360Z,7.7
2019-03-24T01:36:11.849Z,7.66
2019-03-24T01:37:12.371Z,7.66
2019-03-24T01:38:12.853Z,7.64
2019-03-24T01:39:13.061Z,7.66
2019-03-24T01:40:13.559Z,7.69
2019-03-24T01:41:14.325Z,7.72
2019-03-24T01:42:14.532Z,7.72
2019-03-24T01:43:15.019Z,7.59
2019-03-24T01:44:16.337Z,7.64
2019-03-24T01:45:16.656Z,7.72
2019-03-24T01:46:17.139Z,7.61
2019-03-24T01:47:17.785Z,7.59
2019-03-24T01:48:17.986Z,7.55
2019-03-24T01:49:18.470Z,7.51
2019-03-24T01:50:18.950Z,7.55
2019-03-24T01:51:19.188Z,7.43
2019-03-24T01:52:19.952Z,7.48
2019-03-24T01:53:20.157Z,7.37
2019-03-24T01:54:20.362Z,7.44
2019-03-24T01:55:20.843Z,7.31
2019-03-24T01:56:21.329Z,7.31
2019-03-24T01:57:22.819Z,7.21
2019-03-24T01:58:23.028Z,7.28
2019-03-24T01:59:23.279Z,7.36
2019-03-24T02:00:23.499Z,7.23
2019-03-24T02:01:23.979Z,7.26
2019-03-24T02:02:24.467Z,7.28
2019-03-24T02:03:25.223Z,7.29
2019-03-24T02:04:25.441Z,7.39
2019-03-24T02:05:26.475Z,7.26
2019-03-24T02:06:26.963Z,7.32
2019-03-24T02:07:27.939Z,7.39
2019-03-24T02:08:28.713Z,7.36
2019-03-24T02:09:29.476Z,7.36
2019-03-24T02:10:29.957Z,7.37
2019-03-24T02:11:30.444Z,7.32
2019-03-24T02:12:30.762Z,7.33
2019-03-24T02:13:32.134Z,7.33
2019-03-24T02:14:32.905Z,7.37
2019-03-24T02:15:33.948Z,7.33
2019-03-24T02:16:34.710Z,7.4
2019-03-24T02:17:35.371Z,7.37
2019-03-24T02:18:35.859Z,7.37
2019-03-24T02:19:37.172Z,7.37
2019-03-24T02:20:37.940Z,7.28
2019-03-24T02:21:38.149Z,7.28
2019-03-24T02:22:39.188Z,7.22
2019-03-24T02:23:39.677Z,7.19
2019-03-24T02:24:40.192Z,7.18
2019-03-24T02:25:40.679Z,7.1
2019-03-24T02:26:41.164Z,7.1
2019-03-24T02:27:41.422Z,7.01
2019-03-24T02:28:41.917Z,7.15
2019-03-24T02:29:42.520Z,7.14
2019-03-24T02:30:43.679Z,7.14
2019-03-24T02:31:44.175Z,7.14
2019-03-24T02:32:45.064Z,7.15
2019-03-24T02:33:45.839Z,7.15
2019-03-24T02:34:46.742Z,7.19
2019-03-24T02:35:48.394Z,7.14
2019-03-24T02:36:49.023Z,7.13
2019-03-24T02:37:49.571Z,7.11
2019-03-24T02:38:51.503Z,7.14
2019-03-24T02:39:51.557Z,7.18
2019-03-24T02:40:52.659Z,7.25
2019-03-24T02:41:53.845Z,7.25
2019-03-24T02:42:54.449Z,7.22
2019-03-24T02:43:54.950Z,7.23
2019-03-24T02:44:55.285Z,7.4
2019-03-24T02:45:56.896Z,7.43
2019-03-24T02:46:56.699Z,7.32
2019-03-24T02:47:57.278Z,7.31
2019-03-24T02:48:57.813Z,7.33
2019-03-24T02:49:59.147Z,7.28
2019-03-24T02:50:59.599Z,7.39
2019-03-24T02:52:00.638Z,7.31
2019-03-24T02:53:01.750Z,7.4
2019-03-24T02:54:02.959Z,7.39
2019-03-24T02:55:03.560Z,7.41
2019-03-24T02:56:04.209Z,7.29
2019-03-24T02:57:05.091Z,7.25
2019-03-24T02:58:05.948Z,7.07
2019-03-24T02:59:06.838Z,7.01
2019-03-24T03:00:07.683Z,6.92
2019-03-24T03:01:09.100Z,6.96
2019-03-24T03:02:09.712Z,6.96
2019-03-24T03:03:10.354Z,6.9
2019-03-24T03:04:10.401Z,6.86
2019-03-24T03:05:11.501Z,6.78
2019-03-24T03:06:11.850Z,6.74
2019-03-24T03:07:13.181Z,6.83
2019-03-24T03:08:13.999Z,6.68
2019-03-24T03:09:14.826Z,6.71
2019-03-24T03:10:16.147Z,6.67
2019-03-24T03:11:17.602Z,6.71
2019-03-24T03:12:18.245Z,6.65
2019-03-24T03:13:18.325Z,6.82
2019-03-24T03:14:19.397Z,6.85
2019-03-24T03:15:20.815Z,6.86
2019-03-24T03:16:21.579Z,6.8
2019-03-24T03:16:42.786Z,6.85
2019-03-24T03:17:43.423Z,6.92
2019-03-24T03:18:43.943Z,6.89
2019-03-24T03:19:45.878Z,6.82
2019-03-24T03:20:46.543Z,6.86
2019-03-24T03:21:47.743Z,6.93
2019-03-24T03:22:48.117Z,6.9
2019-03-24T03:23:47.880Z,6.92
2019-03-24T03:24:49.499Z,6.9
2019-03-24T03:25:49.861Z,6.85
2019-03-24T03:26:50.775Z,6.87
2019-03-24T03:27:51.295Z,6.86
2019-03-24T03:28:52.381Z,6.9
2019-03-24T03:29:53.300Z,6.87
2019-03-24T03:30:53.681Z,6.85
2019-03-24T03:31:53.881Z,6.87
2019-03-24T03:32:55.500Z,6.8
2019-03-24T03:33:56.273Z,6.83
2019-03-24T03:34:57.349Z,6.68
2019-03-24T03:35:58.010Z,6.74
2019-03-24T03:36:59.491Z,6.74
2019-03-24T03:37:59.960Z,6.68
2019-03-24T03:39:00.073Z,6.72
2019-03-24T03:40:01.382Z,6.72
2019-03-24T03:41:01.635Z,6.57
2019-03-24T03:42:02.684Z,6.72
2019-03-24T03:43:04.637Z,6.72
2019-03-24T03:44:04.699Z,6.57
2019-03-24T03:45:05.838Z,6.6
2019-03-24T03:46:06.734Z,6.56
2019-03-24T03:47:07.884Z,6.59
2019-03-24T03:48:08.095Z,6.54
2019-03-24T03:49:09.017Z,6.56
2019-03-24T03:50:09.638Z,6.64
2019-03-24T03:51:09.751Z,6.57
2019-03-24T03:52:10.799Z,6.59
2019-03-24T03:53:12.450Z,6.59
2019-03-24T03:54:12.779Z,6.65
2019-03-24T03:55:13.441Z,6.62
2019-03-24T03:56:14.058Z,6.67
2019-03-24T03:57:14.387Z,6.7
2019-03-24T03:58:15.083Z,6.82
2019-03-24T03:59:15.707Z,6.7
2019-03-24T04:00:16.894Z,6.83
2019-03-24T04:01:18.095Z,6.87
2019-03-24T04:02:18.543Z,6.77
2019-03-24T04:03:19.481Z,6.82
2019-03-24T04:04:19.809Z,6.83
2019-03-24T04:05:20.887Z,6.82
2019-03-24T04:06:21.807Z,6.7
2019-03-24T04:07:22.157Z,6.71
2019-03-24T04:08:23.708Z,6.77
2019-03-24T04:09:23.779Z,6.72
2019-03-24T04:10:24.122Z,6.74
2019-03-24T04:11:25.104Z,6.72
2019-03-24T04:12:25.445Z,6.72
2019-03-24T04:13:26.219Z,6.68
2019-03-24T04:14:26.850Z,6.68
2019-03-24T04:15:27.479Z,6.68
2019-03-24T04:16:27.541Z,6.57
2019-03-24T04:17:28.063Z,6.72
2019-03-24T04:18:29.528Z,6.64
2019-03-24T04:19:30.427Z,6.7
2019-03-24T04:20:31.203Z,6.72
2019-03-24T04:21:31.805Z,6.71
2019-03-24T04:22:32.477Z,6.7
2019-03-24T04:23:33.262Z,6.71
2019-03-24T04:24:34.081Z,6.78
2019-03-24T04:25:35.473Z,6.74
2019-03-24T04:26:36.107Z,6.77
2019-03-24T04:27:37.200Z,6.78
2019-03-24T04:28:37.562Z,6.75
2019-03-24T04:29:38.444Z,6.71
2019-03-24T04:30:39.393Z,6.75
2019-03-24T04:31:40.162Z,6.72
2019-03-24T04:32:41.505Z,6.74
2019-03-24T04:33:42.546Z,6.68
2019-03-24T04:34:43.551Z,6.72
2019-03-24T04:35:44.171Z,6.59
2019-03-24T04:36:44.926Z,6.6
2019-03-24T04:37:45.689Z,6.6
2019-03-24T04:38:46.523Z,6.64
2019-03-24T04:39:47.632Z,6.44
2019-03-24T04:40:48.953Z,6.54
2019-03-24T04:41:49.042Z,6.54
2019-03-24T04:42:49.957Z,6.5
2019-03-24T04:43:51.014Z,6.49
2019-03-24T04:44:51.504Z,6.46
2019-03-24T04:45:52.540Z,6.47
2019-03-24T04:46:52.746Z,6.43
2019-03-24T04:47:53.230Z,6.44
2019-03-24T04:48:53.886Z,6.46
2019-03-24T04:49:54.369Z,6.47
2019-03-24T04:50:55.684Z,6.5
2019-03-24T04:51:55.753Z,6.41
2019-03-24T04:52:56.266Z,6.43
2019-03-24T04:53:57.030Z,6.49
2019-03-24T04:54:57.511Z,6.46
2019-03-24T04:55:58.552Z,6.38
2019-03-24T04:56:59.044Z,6.41
2019-03-24T04:57:59.810Z,6.35
2019-03-24T04:58:59.777Z,6.38
2019-03-24T05:00:00.451Z,6.36
2019-03-24T05:01:00.976Z,6.32
2019-03-24T05:02:02.023Z,6.38
2019-03-24T05:03:02.346Z,6.36
2019-03-24T05:04:03.149Z,6.36
2019-03-24T05:05:04.190Z,6.36
2019-03-24T05:06:04.503Z,6.35
2019-03-24T05:07:05.269Z,6.34
2019-03-24T05:08:05.775Z,6.28
2019-03-24T05:09:06.979Z,6.22
2019-03-24T05:10:07.462Z,6.35
2019-03-24T05:11:07.944Z,6.34
2019-03-24T05:12:09.019Z,6.35
2019-03-24T05:13:09.779Z,6.35
2019-03-24T05:14:10.259Z,6.43
2019-03-24T05:15:11.019Z,6.36
2019-03-24T05:16:11.501Z,6.35
2019-03-24T05:17:11.998Z,6.44
2019-03-24T05:18:12.758Z,6.29
2019-03-24T05:19:13.262Z,6.41
2019-03-24T05:20:14.045Z,6.35
2019-03-24T05:21:14.804Z,6.34
2019-03-24T05:22:16.123Z,6.38
2019-03-24T05:23:16.613Z,6.38
2019-03-24T05:24:17.373Z,6.39
2019-03-24T05:25:18.149Z,6.39
2019-03-24T05:26:18.921Z,6.43
2019-03-24T05:27:19.441Z,6.47
2019-03-24T05:28:19.643Z,6.38
2019-03-24T05:29:20.568Z,6.43
2019-03-24T05:30:21.051Z,6.44
2019-03-24T05:31:21.812Z,6.47
2019-03-24T05:32:22.019Z,6.47
2019-03-24T05:33:22.777Z,6.49
2019-03-24T05:34:23.262Z,6.44
2019-03-24T05:35:24.064Z,6.49
2019-03-24T05:36:24.544Z,6.49
2019-03-24T05:37:25.024Z,6.41
2019-03-24T05:38:25.232Z,6.44
2019-03-24T05:39:26.473Z,6.41
2019-03-24T05:40:26.672Z,6.44
2019-03-24T05:41:26.875Z,6.49
2019-03-24T05:42:27.934Z,6.49
2019-03-24T05:43:28.140Z,6.43
2019-03-24T05:44:28.343Z,6.49
2019-03-24T05:45:28.548Z,6.46
2019-03-24T05:46:28.755Z,6.57
2019-03-24T05:47:39.319Z,6.44
2019-03-24T05:48:40.289Z,6.54
2019-03-24T05:49:41.062Z,6.57
2019-03-24T05:50:41.553Z,6.46
2019-03-24T05:51:42.600Z,6.54
2019-03-24T05:52:42.802Z,6.56
2019-03-24T05:53:43.575Z,6.6
2019-03-24T05:54:44.636Z,6.64
2019-03-24T05:55:45.401Z,6.6
2019-03-24T05:56:45.608Z,6.54
2019-03-24T05:57:46.099Z,6.57
2019-03-24T05:58:46.400Z,6.47
2019-03-24T05:59:46.885Z,6.53
2019-03-24T06:00:47.378Z,6.57
2019-03-24T06:01:48.498Z,6.49
2019-03-24T06:02:48.980Z,6.47
2019-03-24T06:03:49.180Z,6.43
2019-03-24T06:04:49.669Z,6.54
2019-03-24T06:05:50.713Z,6.44
2019-03-24T06:06:51.470Z,6.56
2019-03-24T06:07:51.551Z,6.5
2019-03-24T06:08:52.485Z,6.46
2019-03-24T06:09:53.247Z,6.56
2019-03-24T06:10:54.567Z,6.6
2019-03-24T06:11:54.330Z,6.72
2019-03-24T06:12:55.089Z,7.04
2019-03-24T06:13:55.296Z,7.62
2019-03-24T06:14:56.897Z,8.32
2019-03-24T06:15:57.672Z,8.97
2019-03-24T06:16:58.154Z,9.42
2019-03-24T06:17:58.923Z,9.84
2019-03-24T06:18:59.746Z,10.38
2019-03-24T06:20:00.307Z,10.89
2019-03-24T06:21:00.650Z,11.55
2019-03-24T06:22:01.697Z,12.32
2019-03-24T06:23:01.745Z,12.68
2019-03-24T06:24:02.231Z,13.19
2019-03-24T06:25:03.421Z,13.33
2019-03-24T06:26:03.835Z,13.67
2019-03-24T06:27:05.039Z,13.85
2019-03-24T06:28:05.808Z,14.3
2019-03-24T06:29:06.759Z,14.45
2019-03-24T06:30:07.253Z,15.04
2019-03-24T06:31:07.752Z,15.33
2019-03-24T06:32:08.270Z,15.81
2019-03-24T06:33:09.326Z,16.32
2019-03-24T06:34:09.821Z,16.64
2019-03-24T06:35:10.639Z,17.09
2019-03-24T06:36:11.172Z,17.34
2019-03-24T06:37:11.670Z,17.41
2019-03-24T06:38:12.457Z,17.39
2019-03-24T06:39:12.695Z,16.99
2019-03-24T06:40:13.222Z,16.95
2019-03-24T06:41:13.997Z,16.92
2019-03-24T06:42:15.047Z,16.94
2019-03-24T06:43:15.096Z,17.31
2019-03-24T06:44:15.328Z,17.47
2019-03-24T06:45:15.860Z,17.79
2019-03-24T06:46:16.379Z,18.08
2019-03-24T06:47:16.877Z,18.39
2019-03-24T06:48:17.380Z,18.71
2019-03-24T06:49:17.606Z,18.86
2019-03-24T06:50:18.705Z,19.23
2019-03-24T06:51:19.485Z,19.47
2019-03-24T06:52:20.543Z,19.71
2019-03-24T06:53:21.601Z,19.64
2019-03-24T06:54:22.413Z,19.92
2019-03-24T06:55:23.464Z,19.89
2019-03-24T06:56:23.972Z,19.99
2019-03-24T06:57:24.749Z,20.03
2019-03-24T06:58:25.804Z,19.96
2019-03-24T06:59:27.320Z,19.94
2019-03-24T07:00:27.543Z,20.19
2019-03-24T07:01:28.069Z,20.39
2019-03-24T07:02:28.569Z,20.52
2019-03-24T07:03:29.067Z,20.66
2019-03-24T07:04:29.867Z,20.36
2019-03-24T07:05:30.371Z,20.39
2019-03-24T07:06:31.424Z,20.26
2019-03-24T07:07:31.885Z,20.07
2019-03-24T07:08:32.661Z,19.56
2019-03-24T07:09:33.657Z,19.44
2019-03-24T07:10:34.439Z,19.67
2019-03-24T07:11:34.943Z,19.85
2019-03-24T07:12:35.169Z,19.96
2019-03-24T07:13:35.408Z,20.11
2019-03-24T07:14:36.741Z,20.14
2019-03-24T07:15:37.821Z,20.34
2019-03-24T07:16:38.600Z,20.4
2019-03-24T07:17:39.100Z,20.44
2019-03-24T07:18:39.326Z,20.4
2019-03-24T07:19:40.570Z,20.39
2019-03-24T07:20:41.350Z,20.66
2019-03-24T07:21:42.140Z,20.67
2019-03-24T07:22:42.922Z,20.9
2019-03-24T07:23:43.145Z,21.01
2019-03-24T07:24:44.210Z,20.89
2019-03-24T07:25:44.705Z,20.63
2019-03-24T07:26:44.934Z,20.64
2019-03-24T07:27:45.436Z,20.68
2019-03-24T07:28:45.666Z,20.7
2019-03-24T07:29:46.373Z,20.39
2019-03-24T07:30:47.156Z,20.36
2019-03-24T07:31:47.489Z,20.46
2019-03-24T07:32:48.003Z,20.21
2019-03-24T07:33:48.227Z,20.19
2019-03-24T07:34:48.720Z,19.96
2019-03-24T07:35:49.509Z,19.97
2019-03-24T07:36:49.732Z,19.79
2019-03-24T07:37:50.264Z,19.75
2019-03-24T07:38:51.320Z,19.71
2019-03-24T07:39:51.289Z,19.3
2019-03-24T07:40:51.790Z,19.38
2019-03-24T07:41:52.578Z,19.63
2019-03-24T07:42:53.631Z,19.99
2019-03-24T07:43:54.412Z,20.22
2019-03-24T07:44:55.186Z,20.27
2019-03-24T07:45:55.686Z,20.26
2019-03-24T07:46:55.904Z,20.63
2019-03-24T07:47:56.129Z,20.59
2019-03-24T07:48:56.629Z,20.48
2019-03-24T07:49:57.193Z,20.6
2019-03-24T07:50:57.456Z,20.64
2019-03-24T07:51:57.682Z,21.04
2019-03-24T07:52:58.458Z,21.35
2019-03-24T07:53:58.959Z,21.63
2019-03-24T07:54:59.458Z,21.78
2019-03-24T07:55:59.969Z,21.69
2019-03-24T07:57:00.477Z,21.22
2019-03-24T07:58:00.979Z,21.15
2019-03-24T07:59:01.489Z,21.14
2019-03-24T08:00:02.321Z,21.08
2019-03-24T08:01:03.439Z,21.2
2019-03-24T08:02:03.943Z,21.29
2019-03-24T08:03:04.474Z,21.41
2019-03-24T08:04:07.552Z,21.47
2019-03-24T08:05:08.059Z,21.45
2019-03-24T08:06:08.556Z,21.35
2019-03-24T08:07:09.340Z,21.37
2019-03-24T08:08:10.396Z,21.41
2019-03-24T08:09:10.923Z,21.33
2019-03-24T08:10:11.885Z,21.3
2019-03-24T08:11:12.672Z,21.29
2019-03-24T08:12:12.935Z,21.33
2019-03-24T08:13:13.990Z,21.58
2019-03-24T08:14:14.548Z,21.25
2019-03-24T08:15:15.051Z,21.19
2019-03-24T08:16:15.563Z,21.47
2019-03-24T08:17:15.829Z,21.68
2019-03-24T08:18:16.620Z,21.85
2019-03-24T08:19:17.415Z,21.85
2019-03-24T08:20:18.530Z,21.69
2019-03-24T08:21:19.033Z,21.56
2019-03-24T08:22:19.537Z,21.6
2019-03-24T08:23:20.316Z,21.53
2019-03-24T08:24:20.819Z,21.47
2019-03-24T08:25:21.046Z,21.68
2019-03-24T08:26:21.556Z,21.81
2019-03-24T08:27:23.173Z,21.91
2019-03-24T08:28:24.536Z,21.91
2019-03-24T08:29:25.606Z,22
2019-03-24T08:30:29.020Z,22.04
2019-03-24T08:31:26.525Z,21.81
2019-03-24T08:32:27.298Z,21.66
2019-03-24T08:33:27.798Z,21.6
2019-03-24T08:34:28.574Z,21.44
2019-03-24T08:35:28.798Z,21.38
2019-03-24T08:36:29.858Z,21.65
2019-03-24T08:37:30.357Z,22.03
2019-03-24T08:38:31.138Z,22.37
2019-03-24T08:39:31.637Z,22.59
2019-03-24T08:40:32.632Z,22.55
2019-03-24T08:41:33.477Z,22.62
2019-03-24T08:42:34.257Z,22.41
2019-03-24T08:43:34.481Z,22.06
2019-03-24T08:44:35.543Z,21.91
2019-03-24T08:45:35.324Z,21.69
2019-03-24T08:46:36.114Z,21.48
2019-03-24T08:47:36.895Z,21.17
2019-03-24T08:48:42.391Z,21.19
2019-03-24T08:49:42.614Z,21.23
2019-03-24T08:50:43.578Z,20.98
2019-03-24T08:51:44.090Z,20.98
2019-03-24T08:52:44.879Z,21.07
2019-03-24T08:53:45.658Z,20.56
2019-03-24T08:54:46.166Z,19.92
2019-03-24T08:55:46.669Z,19.62
2019-03-24T08:56:47.176Z,19.41
2019-03-24T08:57:47.678Z,19.6
2019-03-24T08:58:48.456Z,19.97
2019-03-24T08:59:48.957Z,20.36
2019-03-24T09:00:32.702Z,20.37
2019-03-24T09:01:32.250Z,20.36
2019-03-24T09:02:33.311Z,20.64
2019-03-24T09:03:34.293Z,20.68
2019-03-24T09:04:35.067Z,20.98
2019-03-24T09:05:35.570Z,21.38
2019-03-24T09:06:36.092Z,21.41
2019-03-24T09:07:36.595Z,21.66
2019-03-24T09:08:37.102Z,22.14
2019-03-24T09:09:37.603Z,21.81
2019-03-24T09:10:38.384Z,21.92
2019-03-24T09:11:39.347Z,21.68
2019-03-24T09:12:39.859Z,21.7
2019-03-24T09:13:40.913Z,21.78
2019-03-24T09:14:41.137Z,21.69
2019-03-24T09:15:44.726Z,21.51
2019-03-24T09:16:45.250Z,21.51
2019-03-24T09:17:46.872Z,21.41
2019-03-24T09:18:54.461Z,21.26
2019-03-24T09:18:57.250Z,21.26
2019-03-24T09:19:57.958Z,21.03
2019-03-24T09:20:59.292Z,21.04
2019-03-24T09:21:59.804Z,20.78
2019-03-24T09:23:00.587Z,20.98
2019-03-24T09:24:01.092Z,21.19
2019-03-24T09:25:01.882Z,21.26
2019-03-24T09:26:02.950Z,21.47
2019-03-24T09:27:03.730Z,21.66
2019-03-24T09:28:04.066Z,21.62
2019-03-24T09:29:05.447Z,21.83
2019-03-24T09:30:06.245Z,21.65
2019-03-24T09:31:07.027Z,21.8
2019-03-24T09:32:07.807Z,21.63
2019-03-24T09:33:08.368Z,21.83
2019-03-24T09:34:09.208Z,21.97
2019-03-24T09:35:09.447Z,22.23
2019-03-24T09:36:09.947Z,22.22
2019-03-24T09:37:11.005Z,22.52
2019-03-24T09:38:12.067Z,22.53
2019-03-24T09:39:11.567Z,21.83
2019-03-24T09:40:12.331Z,21.59
2019-03-24T09:41:13.116Z,21.59
2019-03-24T09:42:13.894Z,21.38
2019-03-24T09:43:14.681Z,21.56
2019-03-24T09:44:14.910Z,22.03
2019-03-24T09:45:15.414Z,22.25
2019-03-24T09:46:15.914Z,22.26
2019-03-24T09:47:16.977Z,22.51
2019-03-24T09:48:17.199Z,22.8
2019-03-24T09:49:17.431Z,22.58
2019-03-24T09:50:18.117Z,22.56
2019-03-24T09:51:21.606Z,22.43
2019-03-24T09:52:19.385Z,21.88
2019-03-24T09:53:19.615Z,21.92
2019-03-24T09:54:20.953Z,21.7
2019-03-24T09:55:21.206Z,21.81
2019-03-24T09:56:22.008Z,21.69
2019-03-24T09:57:23.065Z,21.99
2019-03-24T09:58:23.409Z,22.34
2019-03-24T09:59:23.913Z,22.51
2019-03-24T10:00:24.476Z,22.62
2019-03-24T10:01:24.701Z,22.58
2019-03-24T10:02:25.546Z,22.55
2019-03-24T10:03:25.770Z,22.49
2019-03-24T10:04:26.547Z,22.63
2019-03-24T10:05:27.049Z,22.84
2019-03-24T10:06:28.387Z,23.07
2019-03-24T10:07:28.890Z,22.98
2019-03-24T10:08:29.682Z,23.18
2019-03-24T10:09:30.184Z,23.63
2019-03-24T10:10:30.906Z,23.89
2019-03-24T10:11:31.697Z,24.28
2019-03-24T10:12:32.202Z,24.19
2019-03-24T10:13:32.983Z,24.56
2019-03-24T10:14:33.484Z,24.89
2019-03-24T10:15:34.266Z,25.16
2019-03-24T10:16:34.326Z,25.06
2019-03-24T10:17:35.102Z,25.12
2019-03-24T10:18:36.174Z,25.37
2019-03-24T10:19:36.679Z,25.15
2019-03-24T10:20:37.381Z,25.15
2019-03-24T10:21:38.723Z,25.18
2019-03-24T10:22:39.240Z,24.84
2019-03-24T10:23:40.020Z,24.74
2019-03-24T10:24:40.247Z,24.5
2019-03-24T10:25:40.528Z,24.32
2019-03-24T10:26:41.040Z,23.96
2019-03-24T10:27:42.107Z,24.04
2019-03-24T10:28:42.895Z,24.14
2019-03-24T10:29:43.400Z,23.89
2019-03-24T10:30:43.946Z,23.91
2019-03-24T10:31:44.731Z,24.07
2019-03-24T10:32:45.515Z,23.82
2019-03-24T10:33:46.575Z,23.88
2019-03-24T10:34:46.633Z,24.03
2019-03-24T10:35:47.411Z,24.44
2019-03-24T10:36:47.957Z,24.85
2019-03-24T10:37:48.459Z,25
2019-03-24T10:38:49.239Z,25.11
2019-03-24T10:39:49.301Z,24.92
2019-03-24T10:40:31.994Z,24.63
2019-03-24T10:41:32.267Z,24.34
2019-03-24T10:42:33.393Z,24.19
2019-03-24T10:43:34.167Z,24.28
2019-03-24T10:44:34.674Z,24.28
2019-03-24T10:45:35.458Z,24.48
2019-03-24T10:46:36.808Z,24.26
2019-03-24T10:47:37.596Z,24.37
2019-03-24T10:48:38.101Z,24.51
2019-03-24T10:49:38.895Z,24.31
2019-03-24T10:50:39.398Z,24.56
2019-03-24T10:51:40.642Z,24.71
2019-03-24T10:52:41.156Z,24.65
2019-03-24T10:53:42.213Z,24.32
2019-03-24T10:54:42.986Z,24.18
2019-03-24T10:55:43.770Z,23.76
2019-03-24T10:56:44.557Z,23.85
2019-03-24T10:57:45.065Z,23.77
2019-03-24T10:58:45.573Z,24
2019-03-24T10:59:46.626Z,23.91
2019-03-24T11:00:47.130Z,23.52
2019-03-24T11:01:47.954Z,23.37
2019-03-24T11:02:49.294Z,23.17
2019-03-24T11:03:49.519Z,23.17
2019-03-24T11:04:50.020Z,23.48
2019-03-24T11:05:50.251Z,23.48
2019-03-24T11:06:50.493Z,23.39
2019-03-24T11:07:50.997Z,23.81
2019-03-24T11:08:51.220Z,23.84
2019-03-24T11:09:52.288Z,24.13
2019-03-24T11:10:52.800Z,24.41
2019-03-24T11:11:53.766Z,24.63
2019-03-24T11:12:53.993Z,24.79
2019-03-24T11:13:54.217Z,24.96
2019-03-24T11:14:55.038Z,25.01
2019-03-24T11:15:55.592Z,25.15
2019-03-24T11:16:56.099Z,25.26
2019-03-24T11:17:56.605Z,25.15
2019-03-24T11:18:57.114Z,24.93
2019-03-24T11:19:57.615Z,24.82
2019-03-24T11:20:57.843Z,24.65
2019-03-24T11:21:58.365Z,24.16
2019-03-24T11:22:59.428Z,24.31
2019-03-24T11:23:59.650Z,24.31
2019-03-24T11:24:59.878Z,24.4
2019-03-24T11:26:00.601Z,24.71
2019-03-24T11:27:01.104Z,24.79
2019-03-24T11:28:01.616Z,24.59
2019-03-24T11:29:02.416Z,24.55
2019-03-24T11:30:03.471Z,24.29
2019-03-24T11:31:04.532Z,24.1
2019-03-24T11:32:05.055Z,23.94
2019-03-24T11:33:06.123Z,23.79
2019-03-24T11:34:06.645Z,23.62
2019-03-24T11:35:07.147Z,23.56
2019-03-24T11:36:07.949Z,23.47
2019-03-24T11:37:09.012Z,23.69
2019-03-24T11:38:10.062Z,23.74
2019-03-24T11:39:10.567Z,23.76
2019-03-24T11:40:11.677Z,23.64
2019-03-24T11:41:12.195Z,23.82
2019-03-24T11:42:13.441Z,23.92
2019-03-24T11:43:13.948Z,24.16
2019-03-24T11:44:14.733Z,24.25
2019-03-24T11:45:15.511Z,24.26
2019-03-24T11:46:16.571Z,24.47
2019-03-24T11:47:27.999Z,24.46
2019-03-24T11:48:27.970Z,24.31
2019-03-24T11:49:29.324Z,24.46
2019-03-24T11:50:29.887Z,24.28
2019-03-24T11:51:30.669Z,24.34
2019-03-24T11:52:30.896Z,24.46
2019-03-24T11:53:31.675Z,24.56
2019-03-24T11:54:32.188Z,24.61
2019-03-24T11:55:32.697Z,24.53
2019-03-24T11:56:33.213Z,24.44
2019-03-24T11:57:33.993Z,24.44
2019-03-24T11:58:35.136Z,24.06
2019-03-24T11:59:35.101Z,23.76
2019-03-24T12:00:35.883Z,23.26
2019-03-24T12:01:39.819Z,22.76
2019-03-24T12:02:40.321Z,22.56
2019-03-24T12:03:41.096Z,22.61
2019-03-24T12:04:41.597Z,22.53
2019-03-24T12:05:42.422Z,22.63
2019-03-24T12:06:42.918Z,22.59
2019-03-24T12:07:44.003Z,22.47
2019-03-24T12:08:44.874Z,22.41
2019-03-24T12:09:45.105Z,22.46
2019-03-24T12:10:45.615Z,22.37
2019-03-24T12:11:46.127Z,22.44
2019-03-24T12:12:46.913Z,22.38
2019-03-24T12:13:47.693Z,22.26
2019-03-24T12:14:48.219Z,22.31
2019-03-24T12:15:48.717Z,22.3
2019-03-24T12:16:49.225Z,22.26
2019-03-24T12:17:50.043Z,22.53
2019-03-24T12:18:50.012Z,22.8
2019-03-24T12:20:00.565Z,23.08
2019-03-24T12:21:01.381Z,22.98
2019-03-24T12:22:01.612Z,23.29
2019-03-24T12:23:03.230Z,23.47
2019-03-24T12:24:03.575Z,23.4
2019-03-24T12:25:04.076Z,23.1
2019-03-24T12:26:04.856Z,22.86
2019-03-24T12:27:05.426Z,22.74
2019-03-24T12:28:05.653Z,22.63
2019-03-24T12:29:05.876Z,22.77
2019-03-24T12:30:06.653Z,22.93
2019-03-24T12:31:07.462Z,22.95
2019-03-24T12:32:08.524Z,22.98
2019-03-24T12:33:09.075Z,23.17
2019-03-24T12:34:09.586Z,23.18
2019-03-24T12:35:10.090Z,23.25
2019-03-24T12:36:10.592Z,23.47
2019-03-24T12:37:11.369Z,23.73
2019-03-24T12:38:11.921Z,23.95
2019-03-24T12:39:12.420Z,24.18
2019-03-24T12:40:13.222Z,24.07
2019-03-24T12:41:13.914Z,23.92
2019-03-24T12:42:14.694Z,23.66
2019-03-24T12:43:20.698Z,23.26
2019-03-24T12:43:25.643Z,23.33
2019-03-24T12:44:26.220Z,23.16
2019-03-24T12:45:26.735Z,22.99
2019-03-24T12:46:27.275Z,22.7
2019-03-24T12:47:28.347Z,22.52
2019-03-24T12:48:29.902Z,22.22
2019-03-24T12:49:29.773Z,22.08
2019-03-24T12:50:40.156Z,22.16
2019-03-24T12:51:41.434Z,22.58
2019-03-24T12:52:41.663Z,22.8
2019-03-24T12:53:42.464Z,22.77
2019-03-24T12:54:43.520Z,22.84
2019-03-24T12:55:44.299Z,22.93
2019-03-24T12:56:44.811Z,23.2
2019-03-24T12:57:45.881Z,23.4
2019-03-24T12:58:46.668Z,23.56
2019-03-24T12:59:47.461Z,23.91
2019-03-24T13:00:48.244Z,24.18
2019-03-24T13:01:49.365Z,24.48
2019-03-24T13:02:49.760Z,24.61
2019-03-24T13:03:50.291Z,24.32
2019-03-24T13:04:51.072Z,24.16
2019-03-24T13:05:51.590Z,24.22
2019-03-24T13:06:52.088Z,24.16
2019-03-24T13:07:53.170Z,23.95
2019-03-24T13:08:53.393Z,23.85
2019-03-24T13:09:53.915Z,23.95
2019-03-24T13:10:54.554Z,23.99
2019-03-24T13:11:55.120Z,24.24
2019-03-24T13:12:55.226Z,24.34
2019-03-24T13:13:56.590Z,24.48
2019-03-24T13:14:57.103Z,24.5